sensor_id;sensor_type;location;lat;lon;timestamp;pressure;altitude;pressure_sealevel;temperature;humidity
48156;BME280;35568;48.104;11.782;2024-01-30T00:00:13;96738.68;;;1.01;47.95
48156;BME280;35568;48.104;11.782;2024-01-30T00:02:41;96738.50;;;1.01;47.84
48156;BME280;35568;48.104;11.782;2024-01-30T00:05:08;96738.90;;;1.33;47.73
48156;BME280;35568;48.104;11.782;2024-01-30T00:07:35;96737.54;;;1.13;47.72
48156;BME280;35568;48.104;11.782;2024-01-30T00:10:03;96736.76;;;1.63;47.82
48156;BME280;35568;48.104;11.782;2024-01-30T00:12:31;96734.54;;;1.09;47.67
48156;BME280;35568;48.104;11.782;2024-01-30T00:14:58;96734.94;;;0.79;47.60
48156;BME280;35568;48.104;11.782;2024-01-30T00:17:25;96740.09;;;0.82;47.74
48156;BME280;35568;48.104;11.782;2024-01-30T00:19:52;96740.34;;;0.59;48.04
48156;BME280;35568;48.104;11.782;2024-01-30T00:22:19;96738.78;;;0.65;48.18
48156;BME280;35568;48.104;11.782;2024-01-30T00:24:47;96738.95;;;0.48;48.45
48156;BME280;35568;48.104;11.782;2024-01-30T00:27:14;96740.53;;;0.64;48.44
48156;BME280;35568;48.104;11.782;2024-01-30T00:29:42;96739.32;;;0.52;48.60
48156;BME280;35568;48.104;11.782;2024-01-30T00:32:09;96738.99;;;0.62;48.92
48156;BME280;35568;48.104;11.782;2024-01-30T00:34:36;96736.24;;;0.47;49.15
48156;BME280;35568;48.104;11.782;2024-01-30T00:37:03;96735.98;;;0.77;48.88
48156;BME280;35568;48.104;11.782;2024-01-30T00:39:30;96738.95;;;0.53;49.02
48156;BME280;35568;48.104;11.782;2024-01-30T00:41:57;96739.08;;;0.82;48.58
48156;BME280;35568;48.104;11.782;2024-01-30T00:44:24;96739.07;;;0.67;48.74
48156;BME280;35568;48.104;11.782;2024-01-30T00:46:52;96738.32;;;0.60;48.67
48156;BME280;35568;48.104;11.782;2024-01-30T00:49:19;96738.30;;;0.26;48.67
48156;BME280;35568;48.104;11.782;2024-01-30T00:51:46;96735.75;;;0.57;49.05
48156;BME280;35568;48.104;11.782;2024-01-30T00:54:14;96736.60;;;0.42;49.15
48156;BME280;35568;48.104;11.782;2024-01-30T00:56:41;96737.22;;;0.97;48.69
48156;BME280;35568;48.104;11.782;2024-01-30T00:59:09;96738.77;;;1.09;48.42
48156;BME280;35568;48.104;11.782;2024-01-30T01:01:36;96739.83;;;0.77;48.30
48156;BME280;35568;48.104;11.782;2024-01-30T01:04:03;96738.32;;;0.99;48.27
48156;BME280;35568;48.104;11.782;2024-01-30T01:06:32;96735.62;;;0.29;48.20
48156;BME280;35568;48.104;11.782;2024-01-30T01:08:59;96736.59;;;0.42;48.67
48156;BME280;35568;48.104;11.782;2024-01-30T01:11:27;96735.58;;;0.38;48.64
48156;BME280;35568;48.104;11.782;2024-01-30T01:13:55;96736.77;;;0.64;48.51
48156;BME280;35568;48.104;11.782;2024-01-30T01:16:22;96737.04;;;0.66;48.51
48156;BME280;35568;48.104;11.782;2024-01-30T01:18:49;96740.81;;;0.21;48.56
48156;BME280;35568;48.104;11.782;2024-01-30T01:21:17;96739.65;;;0.39;48.64
48156;BME280;35568;48.104;11.782;2024-01-30T01:23:44;96737.77;;;0.73;48.77
48156;BME280;35568;48.104;11.782;2024-01-30T01:26:11;96739.59;;;0.76;48.47
48156;BME280;35568;48.104;11.782;2024-01-30T01:28:40;96739.76;;;0.41;48.73
48156;BME280;35568;48.104;11.782;2024-01-30T01:31:08;96739.80;;;0.26;48.49
48156;BME280;35568;48.104;11.782;2024-01-30T01:33:36;96739.30;;;0.67;48.54
48156;BME280;35568;48.104;11.782;2024-01-30T01:36:03;96738.76;;;0.25;48.99
48156;BME280;35568;48.104;11.782;2024-01-30T01:38:30;96737.65;;;0.65;49.08
48156;BME280;35568;48.104;11.782;2024-01-30T01:40:57;96736.52;;;0.62;48.80
48156;BME280;35568;48.104;11.782;2024-01-30T01:43:25;96735.61;;;0.45;48.61
48156;BME280;35568;48.104;11.782;2024-01-30T01:45:53;96738.18;;;0.61;48.49
48156;BME280;35568;48.104;11.782;2024-01-30T01:48:20;96734.96;;;0.79;48.54
48156;BME280;35568;48.104;11.782;2024-01-30T01:50:48;96736.42;;;0.77;48.10
48156;BME280;35568;48.104;11.782;2024-01-30T01:53:15;96732.16;;;0.87;47.45
48156;BME280;35568;48.104;11.782;2024-01-30T01:55:43;96732.58;;;0.73;47.52
48156;BME280;35568;48.104;11.782;2024-01-30T01:58:11;96731.52;;;0.84;47.24
48156;BME280;35568;48.104;11.782;2024-01-30T02:00:39;96734.28;;;1.26;47.51
48156;BME280;35568;48.104;11.782;2024-01-30T02:03:09;96733.30;;;1.31;47.41
48156;BME280;35568;48.104;11.782;2024-01-30T02:05:37;96736.21;;;0.49;47.54
48156;BME280;35568;48.104;11.782;2024-01-30T02:08:06;96735.13;;;0.39;48.35
48156;BME280;35568;48.104;11.782;2024-01-30T02:10:34;96735.49;;;0.44;48.27
48156;BME280;35568;48.104;11.782;2024-01-30T02:13:01;96734.70;;;0.17;48.56
48156;BME280;35568;48.104;11.782;2024-01-30T02:15:28;96736.97;;;0.30;48.33
48156;BME280;35568;48.104;11.782;2024-01-30T02:17:55;96741.71;;;0.24;48.90
48156;BME280;35568;48.104;11.782;2024-01-30T02:20:23;96736.92;;;0.25;48.91
48156;BME280;35568;48.104;11.782;2024-01-30T02:22:52;96734.35;;;0.39;48.66
48156;BME280;35568;48.104;11.782;2024-01-30T02:25:31;96736.29;;;0.50;48.24
48156;BME280;35568;48.104;11.782;2024-01-30T02:27:58;96736.02;;;0.06;48.51
48156;BME280;35568;48.104;11.782;2024-01-30T02:30:26;96736.75;;;-0.12;49.02
48156;BME280;35568;48.104;11.782;2024-01-30T02:32:53;96736.82;;;-0.01;49.23
48156;BME280;35568;48.104;11.782;2024-01-30T02:35:19;96735.64;;;-0.02;49.02
48156;BME280;35568;48.104;11.782;2024-01-30T02:37:47;96736.18;;;0.12;49.15
48156;BME280;35568;48.104;11.782;2024-01-30T02:40:14;96731.47;;;0.41;48.50
48156;BME280;35568;48.104;11.782;2024-01-30T02:42:41;96732.08;;;0.34;48.40
48156;BME280;35568;48.104;11.782;2024-01-30T02:45:09;96730.22;;;0.22;48.33
48156;BME280;35568;48.104;11.782;2024-01-30T02:47:36;96727.67;;;0.38;48.49
48156;BME280;35568;48.104;11.782;2024-01-30T02:50:04;96732.57;;;0.07;48.76
48156;BME280;35568;48.104;11.782;2024-01-30T02:52:31;96731.42;;;-0.09;48.58
48156;BME280;35568;48.104;11.782;2024-01-30T02:54:58;96729.59;;;0.05;48.88
48156;BME280;35568;48.104;11.782;2024-01-30T02:57:26;96729.51;;;0.16;49.00
48156;BME280;35568;48.104;11.782;2024-01-30T02:59:53;96727.42;;;0.14;48.74
48156;BME280;35568;48.104;11.782;2024-01-30T03:02:20;96726.10;;;-0.14;48.90
48156;BME280;35568;48.104;11.782;2024-01-30T03:04:47;96720.83;;;-0.19;49.25
48156;BME280;35568;48.104;11.782;2024-01-30T03:07:14;96720.51;;;-0.06;49.08
48156;BME280;35568;48.104;11.782;2024-01-30T03:09:42;96717.85;;;-0.05;49.09
48156;BME280;35568;48.104;11.782;2024-01-30T03:12:09;96717.87;;;-0.01;49.00
48156;BME280;35568;48.104;11.782;2024-01-30T03:14:37;96714.92;;;0.25;48.67
48156;BME280;35568;48.104;11.782;2024-01-30T03:17:04;96712.40;;;0.46;48.19
48156;BME280;35568;48.104;11.782;2024-01-30T03:19:31;96714.28;;;0.11;48.58
48156;BME280;35568;48.104;11.782;2024-01-30T03:21:58;96713.34;;;0.27;48.67
48156;BME280;35568;48.104;11.782;2024-01-30T03:24:26;96714.65;;;-0.07;48.51
48156;BME280;35568;48.104;11.782;2024-01-30T03:26:53;96712.60;;;-0.06;48.96
48156;BME280;35568;48.104;11.782;2024-01-30T03:29:21;96709.55;;;0.01;48.65
48156;BME280;35568;48.104;11.782;2024-01-30T03:31:48;96708.30;;;0.05;48.76
48156;BME280;35568;48.104;11.782;2024-01-30T03:34:15;96707.71;;;0.50;48.91
48156;BME280;35568;48.104;11.782;2024-01-30T03:36:42;96708.02;;;0.13;48.51
48156;BME280;35568;48.104;11.782;2024-01-30T03:39:10;96710.88;;;0.12;48.46
48156;BME280;35568;48.104;11.782;2024-01-30T03:41:37;96707.22;;;0.09;48.83
48156;BME280;35568;48.104;11.782;2024-01-30T03:44:06;96706.82;;;0.19;48.33
48156;BME280;35568;48.104;11.782;2024-01-30T03:46:33;96705.28;;;0.19;48.50
48156;BME280;35568;48.104;11.782;2024-01-30T03:49:00;96701.62;;;0.27;48.29
48156;BME280;35568;48.104;11.782;2024-01-30T03:51:27;96704.95;;;0.18;47.81
48156;BME280;35568;48.104;11.782;2024-01-30T03:53:55;96704.17;;;0.30;47.93
48156;BME280;35568;48.104;11.782;2024-01-30T03:56:23;96706.07;;;0.38;47.86
48156;BME280;35568;48.104;11.782;2024-01-30T03:58:50;96706.04;;;0.41;47.98
48156;BME280;35568;48.104;11.782;2024-01-30T04:03:01;96704.04;;;0.32;47.40
48156;BME280;35568;48.104;11.782;2024-01-30T04:05:28;96702.21;;;0.55;47.63
48156;BME280;35568;48.104;11.782;2024-01-30T04:07:56;96702.58;;;0.55;47.47
48156;BME280;35568;48.104;11.782;2024-01-30T04:10:23;96701.88;;;0.40;47.55
48156;BME280;35568;48.104;11.782;2024-01-30T04:12:51;96700.32;;;0.35;47.74
48156;BME280;35568;48.104;11.782;2024-01-30T04:15:18;96704.71;;;0.19;47.33
48156;BME280;35568;48.104;11.782;2024-01-30T04:17:46;96702.96;;;0.48;47.39
48156;BME280;35568;48.104;11.782;2024-01-30T04:20:14;96704.17;;;0.66;47.41
48156;BME280;35568;48.104;11.782;2024-01-30T04:22:42;96705.68;;;0.55;47.37
48156;BME280;35568;48.104;11.782;2024-01-30T04:25:10;96704.63;;;0.72;47.13
48156;BME280;35568;48.104;11.782;2024-01-30T04:27:38;96702.63;;;0.49;46.74
48156;BME280;35568;48.104;11.782;2024-01-30T04:30:05;96702.50;;;0.40;46.73
48156;BME280;35568;48.104;11.782;2024-01-30T04:32:33;96701.82;;;0.91;46.57
48156;BME280;35568;48.104;11.782;2024-01-30T04:35:00;96697.58;;;0.87;46.87
48156;BME280;35568;48.104;11.782;2024-01-30T04:37:27;96697.04;;;0.53;46.88
48156;BME280;35568;48.104;11.782;2024-01-30T04:39:54;96695.06;;;0.70;46.86
48156;BME280;35568;48.104;11.782;2024-01-30T04:42:21;96700.01;;;0.65;46.74
48156;BME280;35568;48.104;11.782;2024-01-30T04:44:49;96702.82;;;0.61;47.09
48156;BME280;35568;48.104;11.782;2024-01-30T04:47:17;96703.87;;;0.72;46.79
48156;BME280;35568;48.104;11.782;2024-01-30T04:49:44;96706.40;;;0.56;46.67
48156;BME280;35568;48.104;11.782;2024-01-30T04:52:11;96707.74;;;0.44;47.10
48156;BME280;35568;48.104;11.782;2024-01-30T04:54:39;96705.48;;;0.34;47.45
48156;BME280;35568;48.104;11.782;2024-01-30T04:57:06;96706.10;;;0.29;47.27
48156;BME280;35568;48.104;11.782;2024-01-30T04:59:33;96706.13;;;0.52;47.68
48156;BME280;35568;48.104;11.782;2024-01-30T05:02:01;96706.27;;;0.37;47.38
48156;BME280;35568;48.104;11.782;2024-01-30T05:04:27;96709.61;;;0.41;47.17
48156;BME280;35568;48.104;11.782;2024-01-30T05:06:55;96709.30;;;0.40;47.17
48156;BME280;35568;48.104;11.782;2024-01-30T05:09:21;96708.61;;;0.33;47.20
48156;BME280;35568;48.104;11.782;2024-01-30T05:11:48;96711.95;;;0.35;47.02
48156;BME280;35568;48.104;11.782;2024-01-30T05:14:15;96712.02;;;0.45;47.35
48156;BME280;35568;48.104;11.782;2024-01-30T05:16:42;96708.69;;;-0.08;47.12
48156;BME280;35568;48.104;11.782;2024-01-30T05:19:09;96711.73;;;0.29;46.91
48156;BME280;35568;48.104;11.782;2024-01-30T05:21:36;96712.62;;;0.23;47.33
48156;BME280;35568;48.104;11.782;2024-01-30T05:24:03;96716.36;;;0.21;47.58
48156;BME280;35568;48.104;11.782;2024-01-30T05:26:30;96716.84;;;0.23;47.22
48156;BME280;35568;48.104;11.782;2024-01-30T05:28:58;96717.11;;;0.46;47.44
48156;BME280;35568;48.104;11.782;2024-01-30T05:31:25;96717.19;;;0.41;47.13
48156;BME280;35568;48.104;11.782;2024-01-30T05:33:52;96717.05;;;0.39;47.14
48156;BME280;35568;48.104;11.782;2024-01-30T05:36:19;96716.20;;;0.49;47.00
48156;BME280;35568;48.104;11.782;2024-01-30T05:38:46;96719.58;;;0.35;46.85
48156;BME280;35568;48.104;11.782;2024-01-30T05:41:13;96720.79;;;0.62;46.61
48156;BME280;35568;48.104;11.782;2024-01-30T05:43:40;96722.57;;;0.70;46.54
48156;BME280;35568;48.104;11.782;2024-01-30T05:46:07;96723.09;;;0.62;46.48
48156;BME280;35568;48.104;11.782;2024-01-30T05:48:34;96722.89;;;0.52;46.68
48156;BME280;35568;48.104;11.782;2024-01-30T05:51:02;96725.63;;;0.53;46.59
48156;BME280;35568;48.104;11.782;2024-01-30T05:53:29;96727.92;;;0.57;46.61
48156;BME280;35568;48.104;11.782;2024-01-30T05:55:57;96729.24;;;0.28;46.39
48156;BME280;35568;48.104;11.782;2024-01-30T05:58:24;96727.55;;;0.49;46.48
48156;BME280;35568;48.104;11.782;2024-01-30T06:00:52;96729.75;;;0.54;46.70
48156;BME280;35568;48.104;11.782;2024-01-30T06:03:19;96728.83;;;0.35;46.62
48156;BME280;35568;48.104;11.782;2024-01-30T06:05:46;96729.66;;;0.58;46.49
48156;BME280;35568;48.104;11.782;2024-01-30T06:08:13;96729.69;;;0.69;46.18
48156;BME280;35568;48.104;11.782;2024-01-30T06:10:40;96732.04;;;0.75;46.05
48156;BME280;35568;48.104;11.782;2024-01-30T06:13:07;96735.35;;;0.75;45.73
48156;BME280;35568;48.104;11.782;2024-01-30T06:15:34;96733.97;;;0.77;45.67
48156;BME280;35568;48.104;11.782;2024-01-30T06:18:01;96737.41;;;0.49;46.07
48156;BME280;35568;48.104;11.782;2024-01-30T06:20:28;96739.55;;;0.29;45.95
48156;BME280;35568;48.104;11.782;2024-01-30T06:22:54;96738.04;;;0.67;46.01
48156;BME280;35568;48.104;11.782;2024-01-30T06:25:22;96737.42;;;0.67;46.28
48156;BME280;35568;48.104;11.782;2024-01-30T06:27:48;96737.97;;;0.31;46.32
48156;BME280;35568;48.104;11.782;2024-01-30T06:30:15;96738.02;;;0.36;46.42
48156;BME280;35568;48.104;11.782;2024-01-30T06:32:42;96737.13;;;0.77;46.41
48156;BME280;35568;48.104;11.782;2024-01-30T06:35:09;96737.60;;;0.78;46.07
48156;BME280;35568;48.104;11.782;2024-01-30T06:37:37;96739.59;;;-0.46;46.46
48156;BME280;35568;48.104;11.782;2024-01-30T06:40:06;96739.95;;;0.53;45.68
48156;BME280;35568;48.104;11.782;2024-01-30T06:42:33;96743.98;;;0.83;45.63
48156;BME280;35568;48.104;11.782;2024-01-30T06:45:00;96744.45;;;0.71;46.28
48156;BME280;35568;48.104;11.782;2024-01-30T06:47:28;96743.89;;;0.78;46.37
48156;BME280;35568;48.104;11.782;2024-01-30T06:49:55;96745.01;;;0.41;45.90
48156;BME280;35568;48.104;11.782;2024-01-30T06:52:22;96749.36;;;0.97;46.00
48156;BME280;35568;48.104;11.782;2024-01-30T06:54:49;96750.96;;;0.87;45.98
48156;BME280;35568;48.104;11.782;2024-01-30T06:57:16;96751.72;;;0.66;45.53
48156;BME280;35568;48.104;11.782;2024-01-30T06:59:43;96758.00;;;0.93;45.46
48156;BME280;35568;48.104;11.782;2024-01-30T07:02:10;96759.07;;;0.78;45.59
48156;BME280;35568;48.104;11.782;2024-01-30T07:04:38;96762.49;;;0.79;45.45
48156;BME280;35568;48.104;11.782;2024-01-30T07:07:05;96763.70;;;0.70;45.33
48156;BME280;35568;48.104;11.782;2024-01-30T07:09:32;96765.08;;;0.76;45.60
48156;BME280;35568;48.104;11.782;2024-01-30T07:11:59;96765.90;;;0.65;45.71
48156;BME280;35568;48.104;11.782;2024-01-30T07:14:26;96765.41;;;1.30;45.47
48156;BME280;35568;48.104;11.782;2024-01-30T07:16:53;96767.24;;;0.99;45.23
48156;BME280;35568;48.104;11.782;2024-01-30T07:19:20;96771.09;;;1.00;45.18
48156;BME280;35568;48.104;11.782;2024-01-30T07:21:47;96770.92;;;1.53;45.22
48156;BME280;35568;48.104;11.782;2024-01-30T07:24:13;96770.26;;;1.25;45.21
48156;BME280;35568;48.104;11.782;2024-01-30T07:26:40;96769.99;;;1.28;45.15
48156;BME280;35568;48.104;11.782;2024-01-30T07:29:08;96771.38;;;1.23;45.02
48156;BME280;35568;48.104;11.782;2024-01-30T07:31:37;96774.83;;;0.31;44.68
48156;BME280;35568;48.104;11.782;2024-01-30T07:34:06;96778.08;;;2.07;43.54
48156;BME280;35568;48.104;11.782;2024-01-30T07:36:40;96779.83;;;1.99;43.94
48156;BME280;35568;48.104;11.782;2024-01-30T07:39:13;96781.07;;;2.20;44.09
48156;BME280;35568;48.104;11.782;2024-01-30T07:41:47;96780.35;;;1.92;43.81
48156;BME280;35568;48.104;11.782;2024-01-30T07:44:16;96780.02;;;2.75;43.37
48156;BME280;35568;48.104;11.782;2024-01-30T07:46:45;96779.91;;;2.70;43.11
48156;BME280;35568;48.104;11.782;2024-01-30T07:49:14;96782.28;;;2.64;42.57
48156;BME280;35568;48.104;11.782;2024-01-30T07:51:42;96779.89;;;2.75;42.25
48156;BME280;35568;48.104;11.782;2024-01-30T07:54:17;96777.93;;;2.96;42.06
48156;BME280;35568;48.104;11.782;2024-01-30T07:56:44;96775.07;;;3.35;41.71
48156;BME280;35568;48.104;11.782;2024-01-30T07:59:11;96774.31;;;3.41;41.48
48156;BME280;35568;48.104;11.782;2024-01-30T08:01:38;96775.15;;;3.79;41.00
48156;BME280;35568;48.104;11.782;2024-01-30T08:04:07;96773.19;;;4.13;41.06
48156;BME280;35568;48.104;11.782;2024-01-30T08:06:36;96774.36;;;4.06;41.38
48156;BME280;35568;48.104;11.782;2024-01-30T08:09:03;96775.90;;;4.41;40.56
48156;BME280;35568;48.104;11.782;2024-01-30T08:11:31;96778.97;;;4.61;40.77
48156;BME280;35568;48.104;11.782;2024-01-30T08:13:58;96778.70;;;4.90;39.90
48156;BME280;35568;48.104;11.782;2024-01-30T08:16:25;96779.93;;;5.01;40.44
48156;BME280;35568;48.104;11.782;2024-01-30T08:18:52;96783.50;;;5.17;38.63
48156;BME280;35568;48.104;11.782;2024-01-30T08:21:20;96777.92;;;5.58;38.02
48156;BME280;35568;48.104;11.782;2024-01-30T08:23:47;96781.86;;;5.76;38.14
48156;BME280;35568;48.104;11.782;2024-01-30T08:26:14;96779.12;;;5.78;37.58
48156;BME280;35568;48.104;11.782;2024-01-30T08:28:42;96781.97;;;5.74;37.28
48156;BME280;35568;48.104;11.782;2024-01-30T08:31:10;96784.14;;;5.79;36.59
48156;BME280;35568;48.104;11.782;2024-01-30T08:33:37;96783.78;;;5.93;36.39
48156;BME280;35568;48.104;11.782;2024-01-30T08:36:05;96785.47;;;5.99;36.49
48156;BME280;35568;48.104;11.782;2024-01-30T08:38:33;96786.66;;;5.97;36.18
48156;BME280;35568;48.104;11.782;2024-01-30T08:41:00;96782.85;;;6.17;36.44
48156;BME280;35568;48.104;11.782;2024-01-30T08:43:27;96783.85;;;6.99;35.82
48156;BME280;35568;48.104;11.782;2024-01-30T08:45:54;96783.28;;;6.85;34.76
48156;BME280;35568;48.104;11.782;2024-01-30T08:48:22;96781.56;;;7.13;34.51
48156;BME280;35568;48.104;11.782;2024-01-30T08:50:49;96783.36;;;7.53;34.20
48156;BME280;35568;48.104;11.782;2024-01-30T08:53:16;96785.48;;;7.82;33.63
48156;BME280;35568;48.104;11.782;2024-01-30T08:55:44;96784.85;;;7.92;33.34
48156;BME280;35568;48.104;11.782;2024-01-30T08:58:11;96785.85;;;8.18;33.08
48156;BME280;35568;48.104;11.782;2024-01-30T09:00:38;96785.93;;;8.37;32.99
48156;BME280;35568;48.104;11.782;2024-01-30T09:03:06;96788.62;;;8.45;32.48
48156;BME280;35568;48.104;11.782;2024-01-30T09:05:33;96789.51;;;8.45;32.45
48156;BME280;35568;48.104;11.782;2024-01-30T09:08:01;96788.55;;;9.04;31.96
48156;BME280;35568;48.104;11.782;2024-01-30T09:10:29;96790.83;;;9.20;31.36
48156;BME280;35568;48.104;11.782;2024-01-30T09:12:55;96794.70;;;9.51;31.31
48156;BME280;35568;48.104;11.782;2024-01-30T09:15:22;96795.80;;;9.69;30.73
48156;BME280;35568;48.104;11.782;2024-01-30T09:17:49;96798.43;;;10.13;30.20
48156;BME280;35568;48.104;11.782;2024-01-30T09:20:16;96800.86;;;10.20;30.02
48156;BME280;35568;48.104;11.782;2024-01-30T09:22:44;96797.65;;;10.56;29.84
48156;BME280;35568;48.104;11.782;2024-01-30T09:25:11;96798.94;;;10.50;29.78
48156;BME280;35568;48.104;11.782;2024-01-30T09:27:38;96801.88;;;10.64;29.28
48156;BME280;35568;48.104;11.782;2024-01-30T09:30:07;96806.51;;;10.92;28.91
48156;BME280;35568;48.104;11.782;2024-01-30T09:32:35;96804.28;;;10.81;28.60
48156;BME280;35568;48.104;11.782;2024-01-30T09:35:03;96807.55;;;11.57;28.39
48156;BME280;35568;48.104;11.782;2024-01-30T09:37:30;96808.84;;;11.61;28.31
48156;BME280;35568;48.104;11.782;2024-01-30T09:39:57;96811.29;;;11.79;28.89
48156;BME280;35568;48.104;11.782;2024-01-30T09:42:32;96811.46;;;12.17;28.95
48156;BME280;35568;48.104;11.782;2024-01-30T09:45:01;96814.70;;;12.47;28.28
48156;BME280;35568;48.104;11.782;2024-01-30T09:47:31;96813.57;;;12.56;27.63
48156;BME280;35568;48.104;11.782;2024-01-30T09:49:59;96807.40;;;13.08;27.54
48156;BME280;35568;48.104;11.782;2024-01-30T09:52:27;96811.09;;;13.19;26.32
48156;BME280;35568;48.104;11.782;2024-01-30T09:54:55;96808.67;;;12.91;25.89
48156;BME280;35568;48.104;11.782;2024-01-30T09:57:23;96809.68;;;12.83;26.61
48156;BME280;35568;48.104;11.782;2024-01-30T09:59:49;96810.21;;;13.36;26.77
48156;BME280;35568;48.104;11.782;2024-01-30T10:02:17;96808.67;;;13.96;26.21
48156;BME280;35568;48.104;11.782;2024-01-30T10:04:46;96808.83;;;14.09;26.06
48156;BME280;35568;48.104;11.782;2024-01-30T10:07:14;96805.53;;;14.27;25.58
48156;BME280;35568;48.104;11.782;2024-01-30T10:09:42;96806.79;;;14.74;24.86
48156;BME280;35568;48.104;11.782;2024-01-30T10:12:10;96801.29;;;15.38;24.35
48156;BME280;35568;48.104;11.782;2024-01-30T10:14:38;96797.38;;;15.49;23.63
48156;BME280;35568;48.104;11.782;2024-01-30T10:17:10;96797.64;;;15.70;23.75
48156;BME280;35568;48.104;11.782;2024-01-30T10:19:38;96795.18;;;16.10;23.32
48156;BME280;35568;48.104;11.782;2024-01-30T10:22:06;96795.60;;;15.99;23.07
48156;BME280;35568;48.104;11.782;2024-01-30T10:24:35;96792.63;;;16.40;22.47
48156;BME280;35568;48.104;11.782;2024-01-30T10:27:03;96793.55;;;16.77;21.95
48156;BME280;35568;48.104;11.782;2024-01-30T10:29:32;96789.60;;;16.35;21.29
48156;BME280;35568;48.104;11.782;2024-01-30T10:32:00;96790.00;;;17.03;22.83
48156;BME280;35568;48.104;11.782;2024-01-30T10:34:28;96784.30;;;17.21;22.61
48156;BME280;35568;48.104;11.782;2024-01-30T10:37:05;96782.47;;;16.81;21.08
48156;BME280;35568;48.104;11.782;2024-01-30T10:39:39;96781.07;;;16.60;22.91
48156;BME280;35568;48.104;11.782;2024-01-30T10:42:12;96776.22;;;17.46;23.15
48156;BME280;35568;48.104;11.782;2024-01-30T10:44:46;96770.37;;;17.36;22.49
48156;BME280;35568;48.104;11.782;2024-01-30T10:47:21;96766.64;;;17.46;22.62
48156;BME280;35568;48.104;11.782;2024-01-30T10:49:48;96763.89;;;17.90;22.41
48156;BME280;35568;48.104;11.782;2024-01-30T10:52:17;96759.40;;;18.59;23.15
48156;BME280;35568;48.104;11.782;2024-01-30T10:54:45;96758.25;;;18.95;22.50
48156;BME280;35568;48.104;11.782;2024-01-30T10:57:16;96758.50;;;19.00;22.77
48156;BME280;35568;48.104;11.782;2024-01-30T10:59:45;96753.66;;;18.42;21.81
48156;BME280;35568;48.104;11.782;2024-01-30T11:02:14;96751.14;;;18.92;22.20
48156;BME280;35568;48.104;11.782;2024-01-30T11:04:41;96747.97;;;18.60;21.03
48156;BME280;35568;48.104;11.782;2024-01-30T11:07:16;96743.16;;;18.82;22.36
48156;BME280;35568;48.104;11.782;2024-01-30T11:09:49;96740.42;;;19.09;21.65
48156;BME280;35568;48.104;11.782;2024-01-30T11:12:21;96738.46;;;19.47;21.44
48156;BME280;35568;48.104;11.782;2024-01-30T11:14:49;96736.81;;;19.91;20.70
48156;BME280;35568;48.104;11.782;2024-01-30T11:17:17;96735.04;;;18.92;20.17
48156;BME280;35568;48.104;11.782;2024-01-30T11:19:46;96734.32;;;17.93;21.21
48156;BME280;35568;48.104;11.782;2024-01-30T11:22:14;96731.25;;;17.42;21.96
48156;BME280;35568;48.104;11.782;2024-01-30T11:24:41;96729.40;;;17.81;22.08
48156;BME280;35568;48.104;11.782;2024-01-30T11:27:09;96729.09;;;17.41;21.71
48156;BME280;35568;48.104;11.782;2024-01-30T11:29:36;96724.13;;;17.68;23.23
48156;BME280;35568;48.104;11.782;2024-01-30T11:32:05;96721.10;;;17.97;22.95
48156;BME280;35568;48.104;11.782;2024-01-30T11:34:33;96720.80;;;17.76;23.03
48156;BME280;35568;48.104;11.782;2024-01-30T11:37:04;96724.46;;;17.53;22.88
48156;BME280;35568;48.104;11.782;2024-01-30T11:39:36;96723.15;;;17.45;23.14
48156;BME280;35568;48.104;11.782;2024-01-30T11:42:06;96721.14;;;17.18;23.07
48156;BME280;35568;48.104;11.782;2024-01-30T11:44:34;96719.33;;;17.72;23.14
48156;BME280;35568;48.104;11.782;2024-01-30T11:47:02;96715.90;;;17.57;23.09
48156;BME280;35568;48.104;11.782;2024-01-30T11:49:29;96714.21;;;17.17;23.08
48156;BME280;35568;48.104;11.782;2024-01-30T11:51:57;96717.41;;;17.71;23.11
48156;BME280;35568;48.104;11.782;2024-01-30T11:54:24;96711.11;;;18.09;22.32
48156;BME280;35568;48.104;11.782;2024-01-30T11:56:52;96710.14;;;18.15;22.42
48156;BME280;35568;48.104;11.782;2024-01-30T11:59:20;96707.74;;;18.73;21.61
48156;BME280;35568;48.104;11.782;2024-01-30T12:01:48;96704.67;;;18.82;21.97
48156;BME280;35568;48.104;11.782;2024-01-30T12:04:15;96704.01;;;19.25;21.30
48156;BME280;35568;48.104;11.782;2024-01-30T12:06:43;96702.07;;;18.60;21.27
48156;BME280;35568;48.104;11.782;2024-01-30T12:09:13;96695.62;;;18.53;21.67
48156;BME280;35568;48.104;11.782;2024-01-30T12:11:44;96693.46;;;18.61;21.51
48156;BME280;35568;48.104;11.782;2024-01-30T12:14:12;96692.20;;;18.68;21.57
48156;BME280;35568;48.104;11.782;2024-01-30T12:16:42;96690.56;;;18.73;21.73
48156;BME280;35568;48.104;11.782;2024-01-30T12:19:10;96689.65;;;18.69;21.59
48156;BME280;35568;48.104;11.782;2024-01-30T12:21:38;96688.04;;;18.71;21.75
48156;BME280;35568;48.104;11.782;2024-01-30T12:24:06;96688.12;;;18.56;21.22
48156;BME280;35568;48.104;11.782;2024-01-30T12:26:34;96687.28;;;17.97;21.78
48156;BME280;35568;48.104;11.782;2024-01-30T12:29:04;96685.18;;;18.37;22.26
48156;BME280;35568;48.104;11.782;2024-01-30T12:31:32;96686.41;;;18.38;22.12
48156;BME280;35568;48.104;11.782;2024-01-30T12:34:00;96682.26;;;18.40;21.96
48156;BME280;35568;48.104;11.782;2024-01-30T12:36:29;96680.33;;;18.17;21.95
48156;BME280;35568;48.104;11.782;2024-01-30T12:38:57;96676.46;;;18.27;22.33
48156;BME280;35568;48.104;11.782;2024-01-30T12:41:24;96674.83;;;18.42;22.54
48156;BME280;35568;48.104;11.782;2024-01-30T12:43:57;96675.67;;;18.23;22.33
48156;BME280;35568;48.104;11.782;2024-01-30T12:46:30;96674.89;;;17.25;22.96
48156;BME280;35568;48.104;11.782;2024-01-30T12:49:11;96674.52;;;17.60;23.16
48156;BME280;35568;48.104;11.782;2024-01-30T12:51:38;96670.92;;;17.35;23.40
48156;BME280;35568;48.104;11.782;2024-01-30T12:54:07;96670.03;;;17.22;23.43
48156;BME280;35568;48.104;11.782;2024-01-30T12:56:38;96668.69;;;17.43;23.65
48156;BME280;35568;48.104;11.782;2024-01-30T12:59:08;96665.69;;;17.87;23.39
48156;BME280;35568;48.104;11.782;2024-01-30T13:01:40;96665.01;;;17.82;23.05